Time;durP1;ratioP1;P1;durP2;ratioP2;P2;SDS_P1;SDS_P2;PMS_P1;PMS_P2;Temp;Humidity;BMP_temperature;BMP_pressure;BME280_temperature;BME280_humidity;BME280_pressure;Samples;Min_cycle;Max_cycle;Signal;HPM_P1;HPM_P2
2023/01/10 06:55:34;;;;;;;7.78;2.35;;;;;;;;;;10509551;28;20491;-82
2023/01/10 07:00:35;;;;;;;6.80;2.08;;;;;;;;;;10507971;28;20067;-83
2023/01/10 07:05:36;;;;;;;6.35;1.90;;;;;;;;;;10507843;28;20032;-83
2023/01/10 07:10:39;;;;;;;7.13;2.67;;;;;;;;;;10511264;28;20025;-83
2023/01/10 07:15:40;;;;;;;8.48;3.03;;;;;;;;;;10504814;28;20025;-83
2023/01/10 07:20:41;;;;;;;11.27;3.60;;;;;;;;;;10506166;28;20056;-83
2023/01/10 07:25:42;;;;;;;7.22;2.88;;;;;;;;;;10504783;28;20032;-83
2023/01/10 07:30:46;;;;;;;8.40;2.88;;;;;;;;;;10506657;28;20060;-83
2023/01/10 07:35:48;;;;;;;8.15;2.50;;;;;;;;;;10507099;28;20039;-83
2023/01/10 07:40:49;;;;;;;14.80;4.20;;;;;;;;;;10505196;28;20075;-83
2023/01/10 07:45:50;;;;;;;9.77;3.10;;;;;;;;;;10507039;28;20029;-83
2023/01/10 07:50:51;;;;;;;;;;;;;;;;;;10512246;28;20094;-82
2023/01/10 07:55:52;;;;;;;7.22;2.50;;;;;;;;;;10527281;28;19909;-83
2023/01/10 08:00:57;;;;;;;6.88;2.22;;;;;;;;;;10503538;28;20096;-82
2023/01/10 08:06:18;;;;;;;5.38;2.35;;;;;;;;;;10492300;28;20028;-81
2023/01/10 08:11:20;;;;;;;9.65;3.58;;;;;;;;;;10484881;28;20053;-81
2023/01/10 08:16:21;;;;;;;9.73;4.32;;;;;;;;;;10484192;28;20324;-81
2023/01/10 08:21:23;;;;;;;;;;;;;;;;;;10479666;28;20065;-80
2023/01/10 08:26:24;;;;;;;15.98;6.25;;;;;;;;;;10472763;28;20254;-82
2023/01/10 08:31:25;;;;;;;;;;;;;;;;;;10473829;28;20028;-82
2023/01/10 08:36:47;;;;;;;10.63;5.35;;;;;;;;;;10436614;22;20037;-83
2023/01/10 08:42:30;;;;;;;8.77;4.75;;;;;;;;;;10359874;28;20176;-83
2023/01/10 08:47:33;;;;;;;20.17;9.80;;;;;;;;;;10357355;28;20023;-83
2023/01/10 08:52:41;;;;;;;14.52;6.20;;;;;;;;;;10356927;28;20034;-83
2023/01/10 08:58:07;;;;;;;13.45;5.53;;;;;;;;;;10325331;28;20031;-83
2023/01/10 09:03:31;;;;;;;14.05;6.72;;;;;;;;;;10364991;28;20046;-83
2023/01/10 09:08:45;;;;;;;14.63;6.47;;;;;;;;;;10364299;28;20038;-83
2023/01/10 09:13:55;;;;;;;13.70;5.60;;;;;;;;;;10354388;28;20023;-83
2023/01/10 09:19:07;;;;;;;13.20;6.07;;;;;;;;;;10348088;28;20046;-83
2023/01/10 09:24:14;;;;;;;14.18;5.53;;;;;;;;;;10321347;28;20047;-83
2023/01/10 09:46:43;;;;;;;11.90;4.97;;;;;;;;;;10347684;28;20068;-83
2023/01/10 09:52:32;;;;;;;11.75;4.43;;;;;;;;;;10348557;28;20094;-83
2023/01/10 09:58:07;;;;;;;10.18;4.43;;;;;;;;;;10316703;28;20116;-83
2023/01/10 10:03:18;;;;;;;12.52;4.40;;;;;;;;;;10345101;28;20026;-82
2023/01/10 10:08:19;;;;;;;;;;;;;;;;;;10344480;28;20026;-82
2023/01/10 10:13:34;;;;;;;42.72;23.08;;;;;;;;;;10343055;28;19992;-82
2023/01/10 10:19:02;;;;;;;13.38;4.82;;;;;;;;;;10343075;28;20041;-83
2023/01/10 10:24:36;;;;;;;11.43;4.07;;;;;;;;;;10344766;28;20061;-83
2023/01/10 10:29:38;;;;;;;13.70;4.45;;;;;;;;;;10341736;28;20077;-81
2023/01/10 10:34:42;;;;;;;10.70;4.03;;;;;;;;;;10341089;28;20062;-81
2023/01/10 10:39:54;;;;;;;11.50;3.90;;;;;;;;;;10341909;28;20132;-82
2023/01/10 10:45:08;;;;;;;12.25;3.47;;;;;;;;;;10342841;28;20499;-81
2023/01/10 10:50:15;;;;;;;13.32;4.20;;;;;;;;;;10340411;28;20037;-82
2023/01/10 10:55:20;;;;;;;9.13;3.38;;;;;;;;;;10344130;28;20066;-81
2023/01/10 11:00:36;;;;;;;11.35;3.85;;;;;;;;;;10347675;28;20034;-79
2023/01/10 11:05:39;;;;;;;11.23;3.60;;;;;;;;;;10343303;28;20111;-82
2023/01/10 11:10:58;;;;;;;9.98;3.33;;;;;;;;;;10349859;28;20442;-85
2023/01/10 11:16:00;;;;;;;7.78;3.17;;;;;;;;;;10348485;28;20054;-82
2023/01/10 11:21:04;;;;;;;9.23;3.58;;;;;;;;;;10348953;28;20144;-82
2023/01/10 11:26:07;;;;;;;12.73;3.60;;;;;;;;;;10346859;28;20022;-81
2023/01/10 11:31:08;;;;;;;13.20;4.32;;;;;;;;;;10348294;28;20038;-81
2023/01/10 11:36:12;;;;;;;;;;;;;;;;;;10344360;28;20226;-81
2023/01/10 11:41:19;;;;;;;8.45;3.60;;;;;;;;;;10354629;28;19914;-82
2023/01/10 11:46:21;;;;;;;8.32;3.20;;;;;;;;;;10386408;28;20041;-82
2023/01/10 11:51:52;;;;;;;7.28;3.03;;;;;;;;;;10387306;28;20015;-84
2023/01/10 11:57:22;;;;;;;10.23;3.57;;;;;;;;;;10226657;28;20053;-83
2023/01/10 12:02:33;;;;;;;10.00;3.58;;;;;;;;;;10376157;28;20058;-83
2023/01/10 12:08:14;;;;;;;10.45;3.17;;;;;;;;;;10388620;28;20010;-85
2023/01/10 12:13:16;;;;;;;11.05;2.95;;;;;;;;;;10226739;28;20125;-85
2023/01/10 12:18:18;;;;;;;11.88;3.22;;;;;;;;;;10353461;28;20038;-87
2023/01/10 12:23:21;;;;;;;8.68;2.72;;;;;;;;;;10387104;28;20060;-87
2023/01/10 12:28:26;;;;;;;9.82;3.17;;;;;;;;;;10386438;28;20010;-85
2023/01/10 12:33:49;;;;;;;9.18;3.10;;;;;;;;;;10384913;28;20098;-81
2023/01/10 12:39:04;;;;;;;10.95;3.38;;;;;;;;;;10367745;28;20076;-85
2023/01/10 12:44:11;;;;;;;8.35;2.75;;;;;;;;;;10367172;28;20053;-84
2023/01/10 12:49:29;;;;;;;8.27;2.90;;;;;;;;;;10385718;28;20023;-83
2023/01/10 12:54:30;;;;;;;10.35;2.67;;;;;;;;;;10384725;28;20049;-83
2023/01/10 12:59:36;;;;;;;;;;;;;;;;;;10385193;28;20100;-81
2023/01/10 13:04:42;;;;;;;11.55;3.28;;;;;;;;;;10385720;28;19912;-81
2023/01/10 13:16:07;;;;;;;7.43;2.72;;;;;;;;;;10343198;28;20035;-79
2023/01/10 13:21:22;;;;;;;10.85;2.75;;;;;;;;;;10326759;28;20027;-83
2023/01/10 13:26:24;;;;;;;9.43;2.78;;;;;;;;;;10359073;28;20046;-83
2023/01/10 13:31:28;;;;;;;14.93;2.75;;;;;;;;;;10384868;28;20041;-84
2023/01/10 13:36:37;;;;;;;11.25;3.30;;;;;;;;;;10384056;28;20014;-82
2023/01/10 13:47:37;;;;;;;8.13;2.75;;;;;;;;;;10384653;28;20166;-82
2023/01/10 13:52:43;;;;;;;8.57;2.85;;;;;;;;;;10373531;28;20015;-82
2023/01/10 13:57:54;;;;;;;9.98;2.75;;;;;;;;;;10384860;28;20070;-82
2023/01/10 14:03:09;;;;;;;7.45;2.60;;;;;;;;;;10382764;28;20045;-85
2023/01/10 14:08:16;;;;;;;7.07;2.50;;;;;;;;;;10383672;28;20034;-83
2023/01/10 14:13:22;;;;;;;8.18;2.60;;;;;;;;;;10384005;28;20011;-84
2023/01/10 14:18:25;;;;;;;6.85;3.30;;;;;;;;;;10381076;28;20041;-83
2023/01/10 14:23:39;;;;;;;9.68;2.30;;;;;;;;;;10354761;28;20121;-84
2023/01/10 14:28:59;;;;;;;7.50;2.30;;;;;;;;;;10359866;28;20077;-86
2023/01/10 14:34:37;;;;;;;10.75;2.72;;;;;;;;;;10341220;28;20066;-84
2023/01/10 14:39:40;;;;;;;10.32;2.50;;;;;;;;;;10354086;28;20022;-85
2023/01/10 14:44:53;;;;;;;7.40;2.45;;;;;;;;;;10365683;28;20114;-84
2023/01/10 14:50:04;;;;;;;8.82;2.30;;;;;;;;;;10363803;28;20072;-85
2023/01/10 14:55:19;;;;;;;9.85;3.35;;;;;;;;;;10353836;28;20068;-86
2023/01/10 15:00:28;;;;;;;11.98;3.55;;;;;;;;;;10350600;28;20030;-85
2023/01/10 15:05:38;;;;;;;6.78;2.50;;;;;;;;;;10347473;28;20045;-87
2023/01/10 15:11:11;;;;;;;9.90;2.33;;;;;;;;;;10349956;28;20022;-85
2023/01/10 15:16:18;;;;;;;6.22;2.55;;;;;;;;;;10354230;28;20035;-82
2023/01/10 15:21:23;;;;;;;8.15;2.83;;;;;;;;;;10351396;28;20094;-83
2023/01/10 15:26:50;;;;;;;8.63;2.78;;;;;;;;;;10355310;28;20096;-84
2023/01/10 15:32:02;;;;;;;6.63;2.30;;;;;;;;;;10332305;28;20113;-84
2023/01/10 15:37:04;;;;;;;9.45;2.85;;;;;;;;;;10355053;28;20038;-83
2023/01/10 15:42:14;;;;;;;7.13;2.30;;;;;;;;;;10355203;28;20046;-83
2023/01/10 15:47:33;;;;;;;6.53;2.13;;;;;;;;;;10351525;28;20121;-83
2023/01/10 15:52:34;;;;;;;11.20;2.55;;;;;;;;;;10348209;28;20128;-83
2023/01/10 15:57:36;;;;;;;9.57;2.80;;;;;;;;;;10351471;28;20034;-82
2023/01/10 16:02:37;;;;;;;8.85;2.22;;;;;;;;;;10375892;28;20102;-83
2023/01/10 16:07:43;;;;;;;7.10;2.05;;;;;;;;;;10386292;28;20178;-82
2023/01/10 16:18:06;;;;;;;8.75;2.55;;;;;;;;;;10352245;28;20034;-82
2023/01/10 16:23:12;;;;;;;7.82;2.60;;;;;;;;;;10351084;28;20034;-83
2023/01/10 16:28:15;;;;;;;9.88;2.50;;;;;;;;;;10348889;28;20378;-84
2023/01/10 16:33:22;;;;;;;9.07;2.85;;;;;;;;;;10350078;28;20368;-83
2023/01/10 16:38:24;;;;;;;11.38;3.08;;;;;;;;;;10350237;28;20034;-84
2023/01/10 16:43:27;;;;;;;8.40;2.80;;;;;;;;;;10348149;28;20026;-83
2023/01/10 16:48:32;;;;;;;11.45;2.53;;;;;;;;;;10349566;28;20062;-84
2023/01/10 16:53:34;;;;;;;5.68;1.90;;;;;;;;;;10352631;28;20117;-83
2023/01/10 16:58:42;;;;;;;7.35;2.05;;;;;;;;;;10351099;28;20026;-83
2023/01/10 17:03:43;;;;;;;10.20;2.80;;;;;;;;;;10351796;28;20038;-83
2023/01/10 17:08:44;;;;;;;10.25;2.90;;;;;;;;;;10351627;28;20026;-84
2023/01/10 17:13:47;;;;;;;7.97;2.78;;;;;;;;;;10348308;28;20030;-85
2023/01/10 17:18:48;;;;;;;8.93;2.47;;;;;;;;;;10350141;28;20519;-84
2023/01/10 17:29:38;;;;;;;;;;;;;;;;;;10375137;28;20080;-88
2023/01/10 17:46:22;;;;;;;;;;;;;;;;;;10391278;28;20038;-89
2023/01/10 17:57:04;;;;;;;7.15;2.40;;;;;;;;;;10367379;28;20087;-89
2023/01/10 18:02:24;;;;;;;6.93;1.85;;;;;;;;;;10363049;28;20095;-89
2023/01/10 18:13:31;;;;;;;5.65;1.90;;;;;;;;;;10396802;28;20026;-88
2023/01/10 18:18:54;;;;;;;5.10;2.03;;;;;;;;;;10380953;28;20025;-88
2023/01/10 18:24:09;;;;;;;5.30;1.90;;;;;;;;;;10367662;28;20026;-88
2023/01/10 18:29:27;;;;;;;6.25;1.80;;;;;;;;;;10362992;28;20026;-88
2023/01/10 18:34:36;;;;;;;4.07;1.60;;;;;;;;;;10361865;28;20087;-88
2023/01/10 18:39:56;;;;;;;5.20;1.73;;;;;;;;;;10363164;28;20026;-88
2023/01/10 18:50:39;;;;;;;3.75;1.58;;;;;;;;;;10379635;28;20029;-88
2023/01/10 18:55:58;;;;;;;5.63;1.60;;;;;;;;;;10367917;28;20400;-87
2023/01/10 19:12:39;;;;;;;3.08;1.50;;;;;;;;;;10388074;28;20077;-87
2023/01/10 19:17:40;;;;;;;3.03;1.23;;;;;;;;;;10367604;28;20056;-88
2023/01/10 19:22:41;;;;;;;3.22;1.13;;;;;;;;;;10363116;28;20025;-88
2023/01/10 19:27:42;;;;;;;3.25;1.10;;;;;;;;;;10363113;28;20473;-88
2023/01/10 19:32:43;;;;;;;3.47;1.10;;;;;;;;;;10380253;28;20048;-88
2023/01/10 19:37:44;;;;;;;3.15;1.02;;;;;;;;;;10369155;28;20097;-88
2023/01/10 19:42:45;;;;;;;3.28;1.27;;;;;;;;;;10368692;28;20093;-88
2023/01/10 19:47:47;;;;;;;3.45;1.20;;;;;;;;;;10375844;28;20096;-89
2023/01/10 19:52:48;;;;;;;4.53;1.30;;;;;;;;;;10394889;28;20010;-84
2023/01/10 19:57:50;;;;;;;6.32;2.55;;;;;;;;;;10400156;28;20034;-87
2023/01/10 20:02:51;;;;;;;5.07;2.20;;;;;;;;;;10387026;28;20030;-87
2023/01/10 20:07:52;;;;;;;4.40;1.27;;;;;;;;;;10382244;28;20021;-87
2023/01/10 20:12:53;;;;;;;;;;;;;;;;;;10373264;28;20034;-87
2023/01/10 20:18:06;;;;;;;4.23;0.90;;;;;;;;;;10394807;28;19909;-88
